Aviation Digital Data Service (ADDS)

Output produced by METARs form (1952 UTC 17 November 2019)
found at http://www.aviationweather.gov/metar/data/
 
METAR text: RJAA 171930Z 33004KT 9999 FEW030 BKN050 11/08 Q1022 NOSIG RMK 1CU030 7SC050 A3020
Conditions at: RJAA (NARITA INTL , JP) observed 1930 UTC 17 November 2019
Temperature: 11.0°C (52°F)
Dewpoint: 8.0°C (46°F) [RH = 82%]
Pressure (altimeter): 30.18 inches Hg (1022.0 mb)
Winds: from the NNW (330 degrees) at 5 MPH (4 knots; 2.1 m/s)
Visibility: 6 or more miles (10+ km)
Ceiling: 5000 feet AGL
Clouds: few clouds at 3000 feet AGL
broken clouds at 5000 feet AGL
Weather: no significant weather observed at this time

METAR text: RJAA 171900Z 33001KT 9999 FEW030 BKN050 11/08 Q1023 NOSIG RMK 1CU030 6SC050 A3021
Conditions at: RJAA (NARITA INTL , JP) observed 1900 UTC 17 November 2019
Temperature: 11.0°C (52°F)
Dewpoint: 8.0°C (46°F) [RH = 82%]
Pressure (altimeter): 30.21 inches Hg (1023.0 mb)
Winds: from the NNW (330 degrees) at 1 MPH (1 knots; 0.5 m/s)
Visibility: 6 or more miles (10+ km)
Ceiling: 5000 feet AGL
Clouds: few clouds at 3000 feet AGL
broken clouds at 5000 feet AGL
Weather: no significant weather observed at this time

METAR text: RJAA 171830Z 34003KT 300V040 9999 FEW030 BKN050 12/07 Q1023 NOSIG RMK 1CU030 7SC050 A3022
Conditions at: RJAA (NARITA INTL , JP) observed 1830 UTC 17 November 2019
Temperature: 12.0°C (54°F)
Dewpoint: 7.0°C (45°F) [RH = 71%]
Pressure (altimeter): 30.21 inches Hg (1023.0 mb)
Winds: from the NNW (340 degrees) at 3 MPH (3 knots; 1.5 m/s)
Visibility: 6 or more miles (10+ km)
Ceiling: 5000 feet AGL
Clouds: few clouds at 3000 feet AGL
broken clouds at 5000 feet AGL
Weather: no significant weather observed at this time

METAR text: RJAA 171800Z 07004KT 9999 FEW030 BKN050 12/07 Q1024 NOSIG RMK 1CU030 7SC050 A3024
Conditions at: RJAA (NARITA INTL , JP) observed 1800 UTC 17 November 2019
Temperature: 12.0°C (54°F)
Dewpoint: 7.0°C (45°F) [RH = 71%]
Pressure (altimeter): 30.24 inches Hg (1024.0 mb)
Winds: from the ENE (70 degrees) at 5 MPH (4 knots; 2.1 m/s)
Visibility: 6 or more miles (10+ km)
Ceiling: 5000 feet AGL
Clouds: few clouds at 3000 feet AGL
broken clouds at 5000 feet AGL
Weather: no significant weather observed at this time

METAR text: RJAA 171730Z 07003KT 9999 FEW030 SCT050 BKN060 12/07 Q1025 NOSIG RMK 1CU030 3SC050 5SC060 A3027
Conditions at: RJAA (NARITA INTL , JP) observed 1730 UTC 17 November 2019
Temperature: 12.0°C (54°F)
Dewpoint: 7.0°C (45°F) [RH = 71%]
Pressure (altimeter): 30.27 inches Hg (1025.0 mb)
Winds: from the ENE (70 degrees) at 3 MPH (3 knots; 1.5 m/s)
Visibility: 6 or more miles (10+ km)
Ceiling: 6000 feet AGL
Clouds: few clouds at 3000 feet AGL
scattered clouds at 5000 feet AGL
broken clouds at 6000 feet AGL
Weather: no significant weather observed at this time

METAR text: RJAA 171700Z 07005KT 9999 FEW030 BKN050 12/07 Q1025 NOSIG RMK 1CU030 7SC050 A3029
Conditions at: RJAA (NARITA INTL , JP) observed 1700 UTC 17 November 2019
Temperature: 12.0°C (54°F)
Dewpoint: 7.0°C (45°F) [RH = 71%]
Pressure (altimeter): 30.27 inches Hg (1025.0 mb)
Winds: from the ENE (70 degrees) at 6 MPH (5 knots; 2.6 m/s)
Visibility: 6 or more miles (10+ km)
Ceiling: 5000 feet AGL
Clouds: few clouds at 3000 feet AGL
broken clouds at 5000 feet AGL
Weather: no significant weather observed at this time

METAR text: RJAA 171630Z 07006KT 9999 FEW030 BKN050 12/07 Q1025 NOSIG RMK 1CU030 7SC050 A3029
Conditions at: RJAA (NARITA INTL , JP) observed 1630 UTC 17 November 2019
Temperature: 12.0°C (54°F)
Dewpoint: 7.0°C (45°F) [RH = 71%]
Pressure (altimeter): 30.27 inches Hg (1025.0 mb)
Winds: from the ENE (70 degrees) at 7 MPH (6 knots; 3.1 m/s)
Visibility: 6 or more miles (10+ km)
Ceiling: 5000 feet AGL
Clouds: few clouds at 3000 feet AGL
broken clouds at 5000 feet AGL
Weather: no significant weather observed at this time

METAR text: RJAA 171600Z 07005KT 9999 FEW030 SCT060 BKN/// 12/06 Q1025 NOSIG RMK 1CU030 4SC060 A3029
Conditions at: RJAA (NARITA INTL , JP) observed 1600 UTC 17 November 2019
Temperature: 12.0°C (54°F)
Dewpoint: 6.0°C (43°F) [RH = 67%]
Pressure (altimeter): 30.27 inches Hg (1025.0 mb)
Winds: from the ENE (70 degrees) at 6 MPH (5 knots; 2.6 m/s)
Visibility: 6 or more miles (10+ km)
Ceiling: at least 12,000 feet AGL
Clouds: few clouds at 3000 feet AGL
scattered clouds at 6000 feet AGL
Weather: no significant weather observed at this time

METAR text: RJAA 171530Z 07006KT 9999 FEW030 SCT150 11/06 Q1025 NOSIG RMK 1CU030 4AC150 A3029
Conditions at: RJAA (NARITA INTL , JP) observed 1530 UTC 17 November 2019
Temperature: 11.0°C (52°F)
Dewpoint: 6.0°C (43°F) [RH = 71%]
Pressure (altimeter): 30.27 inches Hg (1025.0 mb)
Winds: from the ENE (70 degrees) at 7 MPH (6 knots; 3.1 m/s)
Visibility: 6 or more miles (10+ km)
Ceiling: at least 12,000 feet AGL
Clouds: few clouds at 3000 feet AGL
scattered clouds at 15000 feet AGL
Weather: no significant weather observed at this time

METAR text: RJAA 171500Z 08006KT 9999 FEW030 SCT150 11/06 Q1026 NOSIG RMK 1CU030 3AC150 A3030
Conditions at: RJAA (NARITA INTL , JP) observed 1500 UTC 17 November 2019
Temperature: 11.0°C (52°F)
Dewpoint: 6.0°C (43°F) [RH = 71%]
Pressure (altimeter): 30.30 inches Hg (1026.0 mb)
Winds: from the E (80 degrees) at 7 MPH (6 knots; 3.1 m/s)
Visibility: 6 or more miles (10+ km)
Ceiling: at least 12,000 feet AGL
Clouds: few clouds at 3000 feet AGL
scattered clouds at 15000 feet AGL
Weather: no significant weather observed at this time

METAR text: RJAA 171430Z 07006KT 9999 FEW030 SCT150 11/06 Q1026 BECMG 05005KT RMK 1CU030 3AC150 A3031
Conditions at: RJAA (NARITA INTL , JP) observed 1430 UTC 17 November 2019
Temperature: 11.0°C (52°F)
Dewpoint: 6.0°C (43°F) [RH = 71%]
Pressure (altimeter): 30.30 inches Hg (1026.0 mb)
Winds: from the ENE (70 degrees) at 7 MPH (6 knots; 3.1 m/s)
Visibility: 6 or more miles (10+ km)
Ceiling: at least 12,000 feet AGL
Clouds: few clouds at 3000 feet AGL
scattered clouds at 15000 feet AGL
Weather: no significant weather observed at this time

METAR text: RJAA 171400Z 09005KT 9999 FEW030 SCT150 BKN/// 12/05 Q1026 NOSIG RMK 1CU030 3AC150 A3031
Conditions at: RJAA (NARITA INTL , JP) observed 1400 UTC 17 November 2019
Temperature: 12.0°C (54°F)
Dewpoint: 5.0°C (41°F) [RH = 62%]
Pressure (altimeter): 30.30 inches Hg (1026.0 mb)
Winds: from the E (90 degrees) at 6 MPH (5 knots; 2.6 m/s)
Visibility: 6 or more miles (10+ km)
Ceiling: at least 12,000 feet AGL
Clouds: few clouds at 3000 feet AGL
scattered clouds at 15000 feet AGL
Weather: no significant weather observed at this time

METAR text: RJAA 171330Z 09004KT 9999 FEW030 BKN150 BKN/// 11/05 Q1026 NOSIG RMK 1CU030 5AC150 A3032
Conditions at: RJAA (NARITA INTL , JP) observed 1330 UTC 17 November 2019
Temperature: 11.0°C (52°F)
Dewpoint: 5.0°C (41°F) [RH = 66%]
Pressure (altimeter): 30.30 inches Hg (1026.0 mb)
Winds: from the E (90 degrees) at 5 MPH (4 knots; 2.1 m/s)
Visibility: 6 or more miles (10+ km)
Ceiling: 15000 feet AGL
Clouds: few clouds at 3000 feet AGL
broken clouds at 15000 feet AGL
Weather: no significant weather observed at this time

METAR text: RJAA 171300Z 08006KT 9999 FEW030 BKN150 13/05 Q1026 NOSIG RMK 1CU030 7AC150 A3032
Conditions at: RJAA (NARITA INTL , JP) observed 1300 UTC 17 November 2019
Temperature: 13.0°C (55°F)
Dewpoint: 5.0°C (41°F) [RH = 58%]
Pressure (altimeter): 30.30 inches Hg (1026.0 mb)
Winds: from the E (80 degrees) at 7 MPH (6 knots; 3.1 m/s)
Visibility: 6 or more miles (10+ km)
Ceiling: 15000 feet AGL
Clouds: few clouds at 3000 feet AGL
broken clouds at 15000 feet AGL
Weather: no significant weather observed at this time

METAR text: RJAA 171230Z 07006KT 9999 FEW030 BKN150 13/06 Q1026 NOSIG RMK 1CU030 7AC150 A3032
Conditions at: RJAA (NARITA INTL , JP) observed 1230 UTC 17 November 2019
Temperature: 13.0°C (55°F)
Dewpoint: 6.0°C (43°F) [RH = 62%]
Pressure (altimeter): 30.30 inches Hg (1026.0 mb)
Winds: from the ENE (70 degrees) at 7 MPH (6 knots; 3.1 m/s)
Visibility: 6 or more miles (10+ km)
Ceiling: 15000 feet AGL
Clouds: few clouds at 3000 feet AGL
broken clouds at 15000 feet AGL
Weather: no significant weather observed at this time

METAR text: RJAA 171200Z 09006KT 060V120 9999 FEW030 BKN150 13/07 Q1026 NOSIG RMK 1CU030 7AC150 A3030
Conditions at: RJAA (NARITA INTL , JP) observed 1200 UTC 17 November 2019
Temperature: 13.0°C (55°F)
Dewpoint: 7.0°C (45°F) [RH = 67%]
Pressure (altimeter): 30.30 inches Hg (1026.0 mb)
Winds: from the E (90 degrees) at 7 MPH (6 knots; 3.1 m/s)
Visibility: 6 or more miles (10+ km)
Ceiling: 15000 feet AGL
Clouds: few clouds at 3000 feet AGL
broken clouds at 15000 feet AGL
Weather: no significant weather observed at this time

METAR text: RJAA 171130Z 11003KT 9999 FEW030 BKN150 11/07 Q1026 NOSIG RMK 1CU030 7AC150 A3030
Conditions at: RJAA (NARITA INTL , JP) observed 1130 UTC 17 November 2019
Temperature: 11.0°C (52°F)
Dewpoint: 7.0°C (45°F) [RH = 76%]
Pressure (altimeter): 30.30 inches Hg (1026.0 mb)
Winds: from the ESE (110 degrees) at 3 MPH (3 knots; 1.5 m/s)
Visibility: 6 or more miles (10+ km)
Ceiling: 15000 feet AGL
Clouds: few clouds at 3000 feet AGL
broken clouds at 15000 feet AGL
Weather: no significant weather observed at this time

METAR text: RJAA 171100Z 10004KT 9999 FEW030 BKN150 11/06 Q1025 NOSIG RMK 1CU030 6AC150 A3029
Conditions at: RJAA (NARITA INTL , JP) observed 1100 UTC 17 November 2019
Temperature: 11.0°C (52°F)
Dewpoint: 6.0°C (43°F) [RH = 71%]
Pressure (altimeter): 30.27 inches Hg (1025.0 mb)
Winds: from the E (100 degrees) at 5 MPH (4 knots; 2.1 m/s)
Visibility: 6 or more miles (10+ km)
Ceiling: 15000 feet AGL
Clouds: few clouds at 3000 feet AGL
broken clouds at 15000 feet AGL
Weather: no significant weather observed at this time

METAR text: RJAA 171030Z 11005KT 9999 FEW030 SCT150 11/07 Q1025 NOSIG RMK 1CU030 4AC150 A3029
Conditions at: RJAA (NARITA INTL , JP) observed 1030 UTC 17 November 2019
Temperature: 11.0°C (52°F)
Dewpoint: 7.0°C (45°F) [RH = 76%]
Pressure (altimeter): 30.27 inches Hg (1025.0 mb)
Winds: from the ESE (110 degrees) at 6 MPH (5 knots; 2.6 m/s)
Visibility: 6 or more miles (10+ km)
Ceiling: at least 12,000 feet AGL
Clouds: few clouds at 3000 feet AGL
scattered clouds at 15000 feet AGL
Weather: no significant weather observed at this time

METAR text: RJAA 171000Z 10004KT 9999 FEW030 SCT150 10/06 Q1025 NOSIG RMK 1CU030 4AC150 A3028
Conditions at: RJAA (NARITA INTL , JP) observed 1000 UTC 17 November 2019
Temperature: 10.0°C (50°F)
Dewpoint: 6.0°C (43°F) [RH = 76%]
Pressure (altimeter): 30.27 inches Hg (1025.0 mb)
Winds: from the E (100 degrees) at 5 MPH (4 knots; 2.1 m/s)
Visibility: 6 or more miles (10+ km)
Ceiling: at least 12,000 feet AGL
Clouds: few clouds at 3000 feet AGL
scattered clouds at 15000 feet AGL
Weather: no significant weather observed at this time

METAR text: RJAA 170930Z 13004KT 9999 FEW030 12/06 Q1025 NOSIG RMK 1CU030 A3028
Conditions at: RJAA (NARITA INTL , JP) observed 0930 UTC 17 November 2019
Temperature: 12.0°C (54°F)
Dewpoint: 6.0°C (43°F) [RH = 67%]
Pressure (altimeter): 30.27 inches Hg (1025.0 mb)
Winds: from the SE (130 degrees) at 5 MPH (4 knots; 2.1 m/s)
Visibility: 6 or more miles (10+ km)
Ceiling: at least 12,000 feet AGL
Clouds: few clouds at 3000 feet AGL
Weather: no significant weather observed at this time

METAR text: RJAA 170900Z 16003KT 130V190 9999 FEW030 BKN/// 12/06 Q1025 NOSIG RMK 1CU030 A3028
Conditions at: RJAA (NARITA INTL , JP) observed 0900 UTC 17 November 2019
Temperature: 12.0°C (54°F)
Dewpoint: 6.0°C (43°F) [RH = 67%]
Pressure (altimeter): 30.27 inches Hg (1025.0 mb)
Winds: from the SSE (160 degrees) at 3 MPH (3 knots; 1.5 m/s)
Visibility: 6 or more miles (10+ km)
Ceiling: at least 12,000 feet AGL
Clouds: few clouds at 3000 feet AGL
Weather: no significant weather observed at this time

METAR text: RJAA 170830Z 12004KT 060V170 9999 FEW030 SCT/// 14/07 Q1024 BECMG 05006KT
Conditions at: RJAA (NARITA INTL , JP) observed 0830 UTC 17 November 2019
Temperature: 14.0°C (57°F)
Dewpoint: 7.0°C (45°F) [RH = 63%]
Pressure (altimeter): 30.24 inches Hg (1024.0 mb)
Winds: from the ESE (120 degrees) at 5 MPH (4 knots; 2.1 m/s)
Visibility: 6 or more miles (10+ km)
Ceiling: at least 12,000 feet AGL
Clouds: few clouds at 3000 feet AGL
Weather: no significant weather observed at this time

METAR text: RJAA 170800Z 12005KT 9999 FEW030 SCT/// 13/06 Q1024 BECMG 05006KT RMK 1CU030 A3024
Conditions at: RJAA (NARITA INTL , JP) observed 0800 UTC 17 November 2019
Temperature: 13.0°C (55°F)
Dewpoint: 6.0°C (43°F) [RH = 62%]
Pressure (altimeter): 30.24 inches Hg (1024.0 mb)
Winds: from the ESE (120 degrees) at 6 MPH (5 knots; 2.6 m/s)
Visibility: 6 or more miles (10+ km)
Ceiling: at least 12,000 feet AGL
Clouds: few clouds at 3000 feet AGL
Weather: no significant weather observed at this time

METAR text: RJAA 170730Z 14004KT 080V180 9999 FEW030 SCT/// 13/05 Q1023 BECMG 05006KT RMK 1CU030 A3021
Conditions at: RJAA (NARITA INTL , JP) observed 0730 UTC 17 November 2019
Temperature: 13.0°C (55°F)
Dewpoint: 5.0°C (41°F) [RH = 58%]
Pressure (altimeter): 30.21 inches Hg (1023.0 mb)
Winds: from the SE (140 degrees) at 5 MPH (4 knots; 2.1 m/s)
Visibility: 6 or more miles (10+ km)
Ceiling: at least 12,000 feet AGL
Clouds: few clouds at 3000 feet AGL
Weather: no significant weather observed at this time

METAR text: RJAA 170700Z 09003KT 040V170 9999 FEW030 16/05 Q1022 BECMG 05006KT RMK 1CU030 A3020
Conditions at: RJAA (NARITA INTL , JP) observed 0700 UTC 17 November 2019
Temperature: 16.0°C (61°F)
Dewpoint: 5.0°C (41°F) [RH = 48%]
Pressure (altimeter): 30.18 inches Hg (1022.0 mb)
Winds: from the E (90 degrees) at 3 MPH (3 knots; 1.5 m/s)
Visibility: 6 or more miles (10+ km)
Ceiling: at least 12,000 feet AGL
Clouds: few clouds at 3000 feet AGL
Weather: no significant weather observed at this time

METAR text: RJAA 170630Z 07006KT 350V110 9999 FEW030 BKN/// 17/05 Q1022 BECMG 05006KT
Conditions at: RJAA (NARITA INTL , JP) observed 0630 UTC 17 November 2019
Temperature: 17.0°C (63°F)
Dewpoint: 5.0°C (41°F) [RH = 45%]
Pressure (altimeter): 30.18 inches Hg (1022.0 mb)
Winds: from the ENE (70 degrees) at 7 MPH (6 knots; 3.1 m/s)
Visibility: 6 or more miles (10+ km)
Ceiling: at least 12,000 feet AGL
Clouds: few clouds at 3000 feet AGL
Weather: no significant weather observed at this time

METAR text: RJAA 170600Z 05006KT 020V090 9999 FEW030 BKN/// 17/05 Q1021 NOSIG RMK 1CU030 A3017
Conditions at: RJAA (NARITA INTL , JP) observed 0600 UTC 17 November 2019
Temperature: 17.0°C (63°F)
Dewpoint: 5.0°C (41°F) [RH = 45%]
Pressure (altimeter): 30.15 inches Hg (1021.0 mb)
Winds: from the NE (50 degrees) at 7 MPH (6 knots; 3.1 m/s)
Visibility: 6 or more miles (10+ km)
Ceiling: at least 12,000 feet AGL
Clouds: few clouds at 3000 feet AGL
Weather: no significant weather observed at this time

METAR text: RJAA 170530Z 01006KT 310V050 9999 FEW030 SCT/// 17/05 Q1021 NOSIG
Conditions at: RJAA (NARITA INTL , JP) observed 0530 UTC 17 November 2019
Temperature: 17.0°C (63°F)
Dewpoint: 5.0°C (41°F) [RH = 45%]
Pressure (altimeter): 30.15 inches Hg (1021.0 mb)
Winds: from the N (10 degrees) at 7 MPH (6 knots; 3.1 m/s)
Visibility: 6 or more miles (10+ km)
Ceiling: at least 12,000 feet AGL
Clouds: few clouds at 3000 feet AGL
Weather: no significant weather observed at this time

METAR text: RJAA 170500Z 36006KT 310V070 9999 FEW030 17/05 Q1021 NOSIG RMK 1CU030 A3015
Conditions at: RJAA (NARITA INTL , JP) observed 0500 UTC 17 November 2019
Temperature: 17.0°C (63°F)
Dewpoint: 5.0°C (41°F) [RH = 45%]
Pressure (altimeter): 30.15 inches Hg (1021.0 mb)
Winds: from the N (360 degrees) at 7 MPH (6 knots; 3.1 m/s)
Visibility: 6 or more miles (10+ km)
Ceiling: at least 12,000 feet AGL
Clouds: few clouds at 3000 feet AGL
Weather: no significant weather observed at this time

METAR text: RJAA 170430Z 01009KT 9999 FEW030 18/06 Q1020 NOSIG RMK 1CU030 A3014
Conditions at: RJAA (NARITA INTL , JP) observed 0430 UTC 17 November 2019
Temperature: 18.0°C (64°F)
Dewpoint: 6.0°C (43°F) [RH = 45%]
Pressure (altimeter): 30.12 inches Hg (1020.0 mb)
Winds: from the N (10 degrees) at 10 MPH (9 knots; 4.6 m/s)
Visibility: 6 or more miles (10+ km)
Ceiling: at least 12,000 feet AGL
Clouds: few clouds at 3000 feet AGL
Weather: no significant weather observed at this time

METAR text: RJAA 170400Z 01011KT 9999 FEW030 17/05 Q1020 NOSIG RMK 1CU030 A3014
Conditions at: RJAA (NARITA INTL , JP) observed 0400 UTC 17 November 2019
Temperature: 17.0°C (63°F)
Dewpoint: 5.0°C (41°F) [RH = 45%]
Pressure (altimeter): 30.12 inches Hg (1020.0 mb)
Winds: from the N (10 degrees) at 13 MPH (11 knots; 5.7 m/s)
Visibility: 6 or more miles (10+ km)
Ceiling: at least 12,000 feet AGL
Clouds: few clouds at 3000 feet AGL
Weather: no significant weather observed at this time

METAR text: RJAA 170330Z 34014KT 290V010 9999 FEW030 18/05 Q1020 NOSIG RMK 1CU030 A3013
Conditions at: RJAA (NARITA INTL , JP) observed 0330 UTC 17 November 2019
Temperature: 18.0°C (64°F)
Dewpoint: 5.0°C (41°F) [RH = 42%]
Pressure (altimeter): 30.12 inches Hg (1020.0 mb)
Winds: from the NNW (340 degrees) at 16 MPH (14 knots; 7.2 m/s)
Visibility: 6 or more miles (10+ km)
Ceiling: at least 12,000 feet AGL
Clouds: few clouds at 3000 feet AGL
Weather: no significant weather observed at this time

METAR text: RJAA 170300Z 33014KT 9999 FEW030 SCT/// 18/05 Q1020 NOSIG RMK 1CU030 A3012
Conditions at: RJAA (NARITA INTL , JP) observed 0300 UTC 17 November 2019
Temperature: 18.0°C (64°F)
Dewpoint: 5.0°C (41°F) [RH = 42%]
Pressure (altimeter): 30.12 inches Hg (1020.0 mb)
Winds: from the NNW (330 degrees) at 16 MPH (14 knots; 7.2 m/s)
Visibility: 6 or more miles (10+ km)
Ceiling: at least 12,000 feet AGL
Clouds: few clouds at 3000 feet AGL
Weather: no significant weather observed at this time

METAR text: RJAA 170230Z 33013KT 9999 FEW030 SCT/// 17/06 Q1020 NOSIG RMK 1CU030 A3013
Conditions at: RJAA (NARITA INTL , JP) observed 0230 UTC 17 November 2019
Temperature: 17.0°C (63°F)
Dewpoint: 6.0°C (43°F) [RH = 48%]
Pressure (altimeter): 30.12 inches Hg (1020.0 mb)
Winds: from the NNW (330 degrees) at 15 MPH (13 knots; 6.7 m/s)
Visibility: 6 or more miles (10+ km)
Ceiling: at least 12,000 feet AGL
Clouds: few clouds at 3000 feet AGL
Weather: no significant weather observed at this time

METAR text: RJAA 170200Z 33011KT 9999 FEW030 BKN/// 16/05 Q1020 NOSIG RMK 1CU030 A3015
Conditions at: RJAA (NARITA INTL , JP) observed 0200 UTC 17 November 2019
Temperature: 16.0°C (61°F)
Dewpoint: 5.0°C (41°F) [RH = 48%]
Pressure (altimeter): 30.12 inches Hg (1020.0 mb)
Winds: from the NNW (330 degrees) at 13 MPH (11 knots; 5.7 m/s)
Visibility: 6 or more miles (10+ km)
Ceiling: at least 12,000 feet AGL
Clouds: few clouds at 3000 feet AGL
Weather: no significant weather observed at this time

METAR text: RJAA 170130Z 34012KT 9999 FEW030 BKN/// 16/05 Q1021 NOSIG RMK 1CU030 A3015
Conditions at: RJAA (NARITA INTL , JP) observed 0130 UTC 17 November 2019
Temperature: 16.0°C (61°F)
Dewpoint: 5.0°C (41°F) [RH = 48%]
Pressure (altimeter): 30.15 inches Hg (1021.0 mb)
Winds: from the NNW (340 degrees) at 14 MPH (12 knots; 6.2 m/s)
Visibility: 6 or more miles (10+ km)
Ceiling: at least 12,000 feet AGL
Clouds: few clouds at 3000 feet AGL
Weather: no significant weather observed at this time

METAR text: RJAA 170100Z 34013KT 9999 FEW030 BKN/// 16/05 Q1021 NOSIG RMK 1CU030 A3015
Conditions at: RJAA (NARITA INTL , JP) observed 0100 UTC 17 November 2019
Temperature: 16.0°C (61°F)
Dewpoint: 5.0°C (41°F) [RH = 48%]
Pressure (altimeter): 30.15 inches Hg (1021.0 mb)
Winds: from the NNW (340 degrees) at 15 MPH (13 knots; 6.7 m/s)
Visibility: 6 or more miles (10+ km)
Ceiling: at least 12,000 feet AGL
Clouds: few clouds at 3000 feet AGL
Weather: no significant weather observed at this time

METAR text: RJAA 170030Z 35011KT 9999 FEW030 16/07 Q1020 NOSIG RMK 1CU030 A3014
Conditions at: RJAA (NARITA INTL , JP) observed 0030 UTC 17 November 2019
Temperature: 16.0°C (61°F)
Dewpoint: 7.0°C (45°F) [RH = 55%]
Pressure (altimeter): 30.12 inches Hg (1020.0 mb)
Winds: from the N (350 degrees) at 13 MPH (11 knots; 5.7 m/s)
Visibility: 6 or more miles (10+ km)
Ceiling: at least 12,000 feet AGL
Clouds: few clouds at 3000 feet AGL
Weather: no significant weather observed at this time

METAR text: RJAA 170000Z 34007KT 9999 FEW030 15/07 Q1021 NOSIG RMK 1CU030 A3015
Conditions at: RJAA (NARITA INTL , JP) observed 0000 UTC 17 November 2019
Temperature: 15.0°C (59°F)
Dewpoint: 7.0°C (45°F) [RH = 59%]
Pressure (altimeter): 30.15 inches Hg (1021.0 mb)
Winds: from the NNW (340 degrees) at 8 MPH (7 knots; 3.6 m/s)
Visibility: 6 or more miles (10+ km)
Ceiling: at least 12,000 feet AGL
Clouds: few clouds at 3000 feet AGL
Weather: no significant weather observed at this time

METAR text: RJAA 162330Z 36006KT 9999 FEW030 13/08 Q1020 NOSIG RMK 1CU030 A3014
Conditions at: RJAA (NARITA INTL , JP) observed 2330 UTC 16 November 2019
Temperature: 13.0°C (55°F)
Dewpoint: 8.0°C (46°F) [RH = 72%]
Pressure (altimeter): 30.12 inches Hg (1020.0 mb)
Winds: from the N (360 degrees) at 7 MPH (6 knots; 3.1 m/s)
Visibility: 6 or more miles (10+ km)
Ceiling: at least 12,000 feet AGL
Clouds: few clouds at 3000 feet AGL
Weather: no significant weather observed at this time

METAR text: RJAA 162300Z VRB01KT 9999 FEW030 11/08 Q1020 BECMG 36006KT RMK 1CU030 A3013
Conditions at: RJAA (NARITA INTL , JP) observed 2300 UTC 16 November 2019
Temperature: 11.0°C (52°F)
Dewpoint: 8.0°C (46°F) [RH = 82%]
Pressure (altimeter): 30.12 inches Hg (1020.0 mb)
Winds: variable direction winds at 1 MPH (1 knots; 0.5 m/s)
Visibility: 6 or more miles (10+ km)
Ceiling: at least 12,000 feet AGL
Clouds: few clouds at 3000 feet AGL
Weather: no significant weather observed at this time

METAR text: RJAA 162230Z VRB01KT 9999 FEW020 09/08 Q1020 BECMG 36005KT RMK 1CU020 A3013
Conditions at: RJAA (NARITA INTL , JP) observed 2230 UTC 16 November 2019
Temperature: 9.0°C (48°F)
Dewpoint: 8.0°C (46°F) [RH = 93%]
Pressure (altimeter): 30.12 inches Hg (1020.0 mb)
Winds: variable direction winds at 1 MPH (1 knots; 0.5 m/s)
Visibility: 6 or more miles (10+ km)
Ceiling: at least 12,000 feet AGL
Clouds: few clouds at 2000 feet AGL
Weather: no significant weather observed at this time

METAR text: RJAA 162200Z VRB02KT 9999 FEW020 07/07 Q1020 NOSIG RMK 1CU020 A3012
Conditions at: RJAA (NARITA INTL , JP) observed 2200 UTC 16 November 2019
Temperature: 7.0°C (45°F)
Dewpoint: 7.0°C (45°F) [RH = 100%]
Pressure (altimeter): 30.12 inches Hg (1020.0 mb)
Winds: variable direction winds at 2 MPH (2 knots; 1.0 m/s)
Visibility: 6 or more miles (10+ km)
Ceiling: at least 12,000 feet AGL
Clouds: few clouds at 2000 feet AGL
Weather: no significant weather observed at this time

METAR text: RJAA 162130Z 32009KT 8000 FEW020 07/06 Q1020 NOSIG RMK 1CU020 A3013
Conditions at: RJAA (NARITA INTL , JP) observed 2130 UTC 16 November 2019
Temperature: 7.0°C (45°F)
Dewpoint: 6.0°C (43°F) [RH = 93%]
Pressure (altimeter): 30.12 inches Hg (1020.0 mb)
Winds: from the NW (320 degrees) at 10 MPH (9 knots; 4.6 m/s)
Visibility: 5 miles ( 8 km)
Ceiling: at least 12,000 feet AGL
Clouds: few clouds at 2000 feet AGL
Weather: no significant weather observed at this time

METAR text: RJAA 162100Z 30004KT 250V340 8000 FEW003 07/06 Q1019 NOSIG RMK 1ST003 A3012
Conditions at: RJAA (NARITA INTL , JP) observed 2100 UTC 16 November 2019
Temperature: 7.0°C (45°F)
Dewpoint: 6.0°C (43°F) [RH = 93%]
Pressure (altimeter): 30.09 inches Hg (1019.0 mb)
Winds: from the WNW (300 degrees) at 5 MPH (4 knots; 2.1 m/s)
Visibility: 5 miles ( 8 km)
Ceiling: at least 12,000 feet AGL
Clouds: few clouds at 300 feet AGL
Weather: no significant weather observed at this time

METAR text: RJAA 162030Z 26004KT 8000 MIFG FEW002 06/06 Q1019 TEMPO 4500 BR MIFG RMK 1ST002 A3009
Conditions at: RJAA (NARITA INTL , JP) observed 2030 UTC 16 November 2019
Temperature: 6.0°C (43°F)
Dewpoint: 6.0°C (43°F) [RH = 100%]
Pressure (altimeter): 30.09 inches Hg (1019.0 mb)
Winds: from the W (260 degrees) at 5 MPH (4 knots; 2.1 m/s)
Visibility: 5 miles ( 8 km)
Ceiling: at least 12,000 feet AGL
Clouds: few clouds at 200 feet AGL
Weather: MIFG  (shallow fog)

METAR text: RJAA 162000Z VRB02KT 7000 MIFG FEW003 06/06 Q1018 TEMPO 4500 BR MIFG RMK 1ST003 A3007
Conditions at: RJAA (NARITA INTL , JP) observed 2000 UTC 16 November 2019
Temperature: 6.0°C (43°F)
Dewpoint: 6.0°C (43°F) [RH = 100%]
Pressure (altimeter): 30.06 inches Hg (1018.0 mb)
Winds: variable direction winds at 2 MPH (2 knots; 1.0 m/s)
Visibility: 4 miles ( 7 km)
Ceiling: at least 12,000 feet AGL
Clouds: few clouds at 300 feet AGL
Weather: MIFG  (shallow fog)

METAR text: RJAA 161930Z 29003KT 8000 MIFG FEW030 08/07 Q1018 NOSIG RMK 1CU030 A3006
Conditions at: RJAA (NARITA INTL , JP) observed 1930 UTC 16 November 2019
Temperature: 8.0°C (46°F)
Dewpoint: 7.0°C (45°F) [RH = 93%]
Pressure (altimeter): 30.06 inches Hg (1018.0 mb)
Winds: from the WNW (290 degrees) at 3 MPH (3 knots; 1.5 m/s)
Visibility: 5 miles ( 8 km)
Ceiling: at least 12,000 feet AGL
Clouds: few clouds at 3000 feet AGL
Weather: MIFG  (shallow fog)

METAR text: RJAA 161900Z 33005KT 8000 FEW030 08/07 Q1018 NOSIG RMK 1CU030 A3006
Conditions at: RJAA (NARITA INTL , JP) observed 1900 UTC 16 November 2019
Temperature: 8.0°C (46°F)
Dewpoint: 7.0°C (45°F) [RH = 93%]
Pressure (altimeter): 30.06 inches Hg (1018.0 mb)
Winds: from the NNW (330 degrees) at 6 MPH (5 knots; 2.6 m/s)
Visibility: 5 miles ( 8 km)
Ceiling: at least 12,000 feet AGL
Clouds: few clouds at 3000 feet AGL
Weather: no significant weather observed at this time

METAR text: RJAA 161830Z 32003KT 290V350 8000 FEW030 07/07 Q1017 NOSIG RMK 1CU030 A3006
Conditions at: RJAA (NARITA INTL , JP) observed 1830 UTC 16 November 2019
Temperature: 7.0°C (45°F)
Dewpoint: 7.0°C (45°F) [RH = 100%]
Pressure (altimeter): 30.03 inches Hg (1017.0 mb)
Winds: from the NW (320 degrees) at 3 MPH (3 knots; 1.5 m/s)
Visibility: 5 miles ( 8 km)
Ceiling: at least 12,000 feet AGL
Clouds: few clouds at 3000 feet AGL
Weather: no significant weather observed at this time

METAR text: RJAA 161800Z 32006KT 8000 FEW030 08/08 Q1018 NOSIG RMK 1CU030 A3006
Conditions at: RJAA (NARITA INTL , JP) observed 1800 UTC 16 November 2019
Temperature: 8.0°C (46°F)
Dewpoint: 8.0°C (46°F) [RH = 100%]
Pressure (altimeter): 30.06 inches Hg (1018.0 mb)
Winds: from the NW (320 degrees) at 7 MPH (6 knots; 3.1 m/s)
Visibility: 5 miles ( 8 km)
Ceiling: at least 12,000 feet AGL
Clouds: few clouds at 3000 feet AGL
Weather: no significant weather observed at this time

METAR text: RJAA 161730Z 32007KT 8000 MIFG FEW030 08/08 Q1017 NOSIG RMK 1CU030 A3006
Conditions at: RJAA (NARITA INTL , JP) observed 1730 UTC 16 November 2019
Temperature: 8.0°C (46°F)
Dewpoint: 8.0°C (46°F) [RH = 100%]
Pressure (altimeter): 30.03 inches Hg (1017.0 mb)
Winds: from the NW (320 degrees) at 8 MPH (7 knots; 3.6 m/s)
Visibility: 5 miles ( 8 km)
Ceiling: at least 12,000 feet AGL
Clouds: few clouds at 3000 feet AGL
Weather: MIFG  (shallow fog)

METAR text: RJAA 161700Z 32005KT 9999 MIFG FEW030 09/08 Q1017 NOSIG RMK 1CU030 A3005
Conditions at: RJAA (NARITA INTL , JP) observed 1700 UTC 16 November 2019
Temperature: 9.0°C (48°F)
Dewpoint: 8.0°C (46°F) [RH = 93%]
Pressure (altimeter): 30.03 inches Hg (1017.0 mb)
Winds: from the NW (320 degrees) at 6 MPH (5 knots; 2.6 m/s)
Visibility: 6 or more miles (10+ km)
Ceiling: at least 12,000 feet AGL
Clouds: few clouds at 3000 feet AGL
Weather: MIFG  (shallow fog)

METAR text: RJAA 161630Z 31004KT 9999 FEW030 09/09 Q1017 NOSIG RMK 1CU030 A3003
Conditions at: RJAA (NARITA INTL , JP) observed 1630 UTC 16 November 2019
Temperature: 9.0°C (48°F)
Dewpoint: 9.0°C (48°F) [RH = 100%]
Pressure (altimeter): 30.03 inches Hg (1017.0 mb)
Winds: from the NW (310 degrees) at 5 MPH (4 knots; 2.1 m/s)
Visibility: 6 or more miles (10+ km)
Ceiling: at least 12,000 feet AGL
Clouds: few clouds at 3000 feet AGL
Weather: no significant weather observed at this time

METAR text: RJAA 161600Z 34004KT 9999 FEW030 08/07 Q1017 NOSIG RMK 1CU030 A3003
Conditions at: RJAA (NARITA INTL , JP) observed 1600 UTC 16 November 2019
Temperature: 8.0°C (46°F)
Dewpoint: 7.0°C (45°F) [RH = 93%]
Pressure (altimeter): 30.03 inches Hg (1017.0 mb)
Winds: from the NNW (340 degrees) at 5 MPH (4 knots; 2.1 m/s)
Visibility: 6 or more miles (10+ km)
Ceiling: at least 12,000 feet AGL
Clouds: few clouds at 3000 feet AGL
Weather: no significant weather observed at this time

METAR text: RJAA 161530Z 34003KT 9999 FEW030 09/07 Q1017 NOSIG RMK 1CU030 A3003
Conditions at: RJAA (NARITA INTL , JP) observed 1530 UTC 16 November 2019
Temperature: 9.0°C (48°F)
Dewpoint: 7.0°C (45°F) [RH = 87%]
Pressure (altimeter): 30.03 inches Hg (1017.0 mb)
Winds: from the NNW (340 degrees) at 3 MPH (3 knots; 1.5 m/s)
Visibility: 6 or more miles (10+ km)
Ceiling: at least 12,000 feet AGL
Clouds: few clouds at 3000 feet AGL
Weather: no significant weather observed at this time

METAR text: RJAA 161500Z 36004KT 9999 FEW030 10/08 Q1017 NOSIG RMK 1CU030 A3003
Conditions at: RJAA (NARITA INTL , JP) observed 1500 UTC 16 November 2019
Temperature: 10.0°C (50°F)
Dewpoint: 8.0°C (46°F) [RH = 87%]
Pressure (altimeter): 30.03 inches Hg (1017.0 mb)
Winds: from the N (360 degrees) at 5 MPH (4 knots; 2.1 m/s)
Visibility: 6 or more miles (10+ km)
Ceiling: at least 12,000 feet AGL
Clouds: few clouds at 3000 feet AGL
Weather: no significant weather observed at this time

METAR text: RJAA 161430Z VRB01KT 9999 FEW030 09/08 Q1016 NOSIG RMK 1CU030 A3003
Conditions at: RJAA (NARITA INTL , JP) observed 1430 UTC 16 November 2019
Temperature: 9.0°C (48°F)
Dewpoint: 8.0°C (46°F) [RH = 93%]
Pressure (altimeter): 30.00 inches Hg (1016.0 mb)
Winds: variable direction winds at 1 MPH (1 knots; 0.5 m/s)
Visibility: 6 or more miles (10+ km)
Ceiling: at least 12,000 feet AGL
Clouds: few clouds at 3000 feet AGL
Weather: no significant weather observed at this time

METAR text: RJAA 161400Z VRB01KT 9999 FEW030 10/09 Q1016 BECMG 34006KT RMK 1CU030 A3003
Conditions at: RJAA (NARITA INTL , JP) observed 1400 UTC 16 November 2019
Temperature: 10.0°C (50°F)
Dewpoint: 9.0°C (48°F) [RH = 93%]
Pressure (altimeter): 30.00 inches Hg (1016.0 mb)
Winds: variable direction winds at 1 MPH (1 knots; 0.5 m/s)
Visibility: 6 or more miles (10+ km)
Ceiling: at least 12,000 feet AGL
Clouds: few clouds at 3000 feet AGL
Weather: no significant weather observed at this time

METAR text: RJAA 161330Z 15001KT 9999 FEW030 09/08 Q1016 BECMG 35006KT
Conditions at: RJAA (NARITA INTL , JP) observed 1330 UTC 16 November 2019
Temperature: 9.0°C (48°F)
Dewpoint: 8.0°C (46°F) [RH = 93%]
Pressure (altimeter): 30.00 inches Hg (1016.0 mb)
Winds: from the SSE (150 degrees) at 1 MPH (1 knots; 0.5 m/s)
Visibility: 6 or more miles (10+ km)
Ceiling: at least 12,000 feet AGL
Clouds: few clouds at 3000 feet AGL
Weather: no significant weather observed at this time

METAR text: RJAA 161300Z VRB01KT 9999 FEW030 10/09 Q1016 BECMG TL1400 35006KT RMK 1CU030 A3003
Conditions at: RJAA (NARITA INTL , JP) observed 1300 UTC 16 November 2019
Temperature: 10.0°C (50°F)
Dewpoint: 9.0°C (48°F) [RH = 93%]
Pressure (altimeter): 30.00 inches Hg (1016.0 mb)
Winds: variable direction winds at 1 MPH (1 knots; 0.5 m/s)
Visibility: 6 or more miles (10+ km)
Ceiling: at least 12,000 feet AGL
Clouds: few clouds at 3000 feet AGL
Weather: no significant weather observed at this time

METAR text: RJAA 161230Z VRB01KT 9999 FEW030 10/08 Q1016 BECMG TL1400 36006KT RMK 1CU030 A3002
Conditions at: RJAA (NARITA INTL , JP) observed 1230 UTC 16 November 2019
Temperature: 10.0°C (50°F)
Dewpoint: 8.0°C (46°F) [RH = 87%]
Pressure (altimeter): 30.00 inches Hg (1016.0 mb)
Winds: variable direction winds at 1 MPH (1 knots; 0.5 m/s)
Visibility: 6 or more miles (10+ km)
Ceiling: at least 12,000 feet AGL
Clouds: few clouds at 3000 feet AGL
Weather: no significant weather observed at this time

METAR text: RJAA 161200Z 14003KT 110V200 9999 FEW030 11/09 Q1016 BECMG FM1230 36006KT RMK 1CU030 A3003
Conditions at: RJAA (NARITA INTL , JP) observed 1200 UTC 16 November 2019
Temperature: 11.0°C (52°F)
Dewpoint: 9.0°C (48°F) [RH = 87%]
Pressure (altimeter): 30.00 inches Hg (1016.0 mb)
Winds: from the SE (140 degrees) at 3 MPH (3 knots; 1.5 m/s)
Visibility: 6 or more miles (10+ km)
Ceiling: at least 12,000 feet AGL
Clouds: few clouds at 3000 feet AGL
Weather: no significant weather observed at this time

METAR text: RJAA 161130Z 13003KT 9999 FEW030 09/07 Q1016 BECMG FM1230 01006KT RMK 1CU030 A3002
Conditions at: RJAA (NARITA INTL , JP) observed 1130 UTC 16 November 2019
Temperature: 9.0°C (48°F)
Dewpoint: 7.0°C (45°F) [RH = 87%]
Pressure (altimeter): 30.00 inches Hg (1016.0 mb)
Winds: from the SE (130 degrees) at 3 MPH (3 knots; 1.5 m/s)
Visibility: 6 or more miles (10+ km)
Ceiling: at least 12,000 feet AGL
Clouds: few clouds at 3000 feet AGL
Weather: no significant weather observed at this time

METAR text: RJAA 161100Z 13004KT 9999 FEW030 10/09 Q1016 BECMG FM1230 01006KT RMK 1CU030 A3003
Conditions at: RJAA (NARITA INTL , JP) observed 1100 UTC 16 November 2019
Temperature: 10.0°C (50°F)
Dewpoint: 9.0°C (48°F) [RH = 93%]
Pressure (altimeter): 30.00 inches Hg (1016.0 mb)
Winds: from the SE (130 degrees) at 5 MPH (4 knots; 2.1 m/s)
Visibility: 6 or more miles (10+ km)
Ceiling: at least 12,000 feet AGL
Clouds: few clouds at 3000 feet AGL
Weather: no significant weather observed at this time

METAR text: RJAA 161030Z 14003KT 9999 FEW030 11/08 Q1016 NOSIG RMK 1CU030 A3003
Conditions at: RJAA (NARITA INTL , JP) observed 1030 UTC 16 November 2019
Temperature: 11.0°C (52°F)
Dewpoint: 8.0°C (46°F) [RH = 82%]
Pressure (altimeter): 30.00 inches Hg (1016.0 mb)
Winds: from the SE (140 degrees) at 3 MPH (3 knots; 1.5 m/s)
Visibility: 6 or more miles (10+ km)
Ceiling: at least 12,000 feet AGL
Clouds: few clouds at 3000 feet AGL
Weather: no significant weather observed at this time

METAR text: RJAA 161000Z 11003KT 050V200 9999 FEW030 12/09 Q1017 NOSIG RMK 1CU030 A3003
Conditions at: RJAA (NARITA INTL , JP) observed 1000 UTC 16 November 2019
Temperature: 12.0°C (54°F)
Dewpoint: 9.0°C (48°F) [RH = 82%]
Pressure (altimeter): 30.03 inches Hg (1017.0 mb)
Winds: from the ESE (110 degrees) at 3 MPH (3 knots; 1.5 m/s)
Visibility: 6 or more miles (10+ km)
Ceiling: at least 12,000 feet AGL
Clouds: few clouds at 3000 feet AGL
Weather: no significant weather observed at this time

METAR text: RJAA 160930Z 07003KT 010V150 9999 FEW030 15/09 Q1017 NOSIG RMK 1CU030 A3003
Conditions at: RJAA (NARITA INTL , JP) observed 0930 UTC 16 November 2019
Temperature: 15.0°C (59°F)
Dewpoint: 9.0°C (48°F) [RH = 67%]
Pressure (altimeter): 30.03 inches Hg (1017.0 mb)
Winds: from the ENE (70 degrees) at 3 MPH (3 knots; 1.5 m/s)
Visibility: 6 or more miles (10+ km)
Ceiling: at least 12,000 feet AGL
Clouds: few clouds at 3000 feet AGL
Weather: no significant weather observed at this time

METAR text: RJAA 160900Z VRB04KT 9999 FEW030 14/10 Q1016 BECMG 09005KT RMK 1CU030 A3003
Conditions at: RJAA (NARITA INTL , JP) observed 0900 UTC 16 November 2019
Temperature: 14.0°C (57°F)
Dewpoint: 10.0°C (50°F) [RH = 77%]
Pressure (altimeter): 30.00 inches Hg (1016.0 mb)
Winds: variable direction winds at 5 MPH (4 knots; 2.1 m/s)
Visibility: 6 or more miles (10+ km)
Ceiling: at least 12,000 feet AGL
Clouds: few clouds at 3000 feet AGL
Weather: no significant weather observed at this time

METAR text: RJAA 160830Z 11005KT 070V170 9999 FEW030 13/10 Q1016 NOSIG RMK 1CU030 A3001
Conditions at: RJAA (NARITA INTL , JP) observed 0830 UTC 16 November 2019
Temperature: 13.0°C (55°F)
Dewpoint: 10.0°C (50°F) [RH = 82%]
Pressure (altimeter): 30.00 inches Hg (1016.0 mb)
Winds: from the ESE (110 degrees) at 6 MPH (5 knots; 2.6 m/s)
Visibility: 6 or more miles (10+ km)
Ceiling: at least 12,000 feet AGL
Clouds: few clouds at 3000 feet AGL
Weather: no significant weather observed at this time

METAR text: RJAA 160800Z 13006KT 9999 FEW030 13/09 Q1016 NOSIG RMK 1CU030 A3000
Conditions at: RJAA (NARITA INTL , JP) observed 0800 UTC 16 November 2019
Temperature: 13.0°C (55°F)
Dewpoint: 9.0°C (48°F) [RH = 77%]
Pressure (altimeter): 30.00 inches Hg (1016.0 mb)
Winds: from the SE (130 degrees) at 7 MPH (6 knots; 3.1 m/s)
Visibility: 6 or more miles (10+ km)
Ceiling: at least 12,000 feet AGL
Clouds: few clouds at 3000 feet AGL
Weather: no significant weather observed at this time

Forecast for: RJAA (NARITA INTL , JP)
Text: TAF RJAA 171713Z 1718/1900 10004KT 9999 FEW020 BKN040
Forecast period: 1800 UTC 17 November 2019 to 0200 UTC 18 November 2019
Forecast type: FROM: standard forecast or significant change
Winds: from the E (100 degrees) at 5 MPH (4 knots; 2.1 m/s)
Visibility: 6 or more miles 10+ km)
Ceiling: 4000 feet AGL
Clouds: few clouds at 2000 feet AGL
broken clouds at 4000 feet AGL
Weather: no significant weather forecast for this period
Text: BECMG 1802/1804 22016KT
Forecast period: 0200 to 1800 UTC 18 November 2019
Forecast type: BECOMING: Conditions expected to become as follows by 0400 UTC 18 November 2019
Winds: from the SW (220 degrees) at 18 MPH (16 knots; 8.2 m/s)
Visibility: 6 or more miles 10+ km)
Ceiling: 4000 feet AGL
Clouds: few clouds at 2000 feet AGL
broken clouds at 4000 feet AGL
Weather: no significant weather forecast for this period
Text: TEMPO 1804/1809 22020G34KT
Forecast period: 0400 to 0900 UTC 18 November 2019
Forecast type: TEMPORARY: The following changes expected for less than half the time period
Winds: from the SW (220 degrees) at 23 MPH (20 knots; 10.3 m/s)
gusting to 39 MPH (34 knots; 17.5 m/s)
Visibility: missing
Ceiling: unknown
Clouds: missing
Weather: no significant weather forecast for this period
Text: TEMPO 1815/1900 4000 SHRA BR FEW003 BKN005
Forecast period: 1500 UTC 18 November 2019 to 0000 UTC 19 November 2019
Forecast type: TEMPORARY: The following changes expected for less than half the time period
Visibility: 2.49 miles (4.01 km)
Ceiling: 500 feet AGL
Clouds: few clouds at 300 feet AGL
broken clouds at 500 feet AGL
Weather: SHRA BR  (rain showers, mist)
Text: BECMG 1818/1821 34012KT
Forecast period: 1800 UTC 18 November 2019 to 0000 UTC 19 November 2019
Forecast type: BECOMING: Conditions expected to become as follows by 2100 UTC 18 November 2019
Winds: from the NNW (340 degrees) at 14 MPH (12 knots; 6.2 m/s)
Visibility: 6 or more miles 10+ km)
Ceiling: 4000 feet AGL
Clouds: few clouds at 2000 feet AGL
broken clouds at 4000 feet AGL
Weather: no significant weather forecast for this period